Terminal Aerodrome Forecast
Issued by NWS Memphis, TN

Home | Current Version | Previous Version | Text Only | Print | Product List | Glossary On
Versions: 1 2 3 4 5 6 7 8 9 10 11 12
000
FTUS44 KMEG 030520
TAFMKL
TAF
KMKL 030520Z 0306/0406 00000KT P6SM SKC
      TEMPO 0306/0309 2SM BR
     FM030900 00000KT 5SM BR SKC
      TEMPO 0309/0313 2SM BR
     FM031300 24005KT P6SM SKC
     FM031800 26007KT P6SM FEW050
     FM040100 VRB02KT P6SM SKC=

USA.gov is the U.S. government's official web portal to all federal, state and local government web resources and services.